Time;durP1;ratioP1;P1;durP2;ratioP2;P2;SDS_P1;SDS_P2;PMS_P1;PMS_P2;Temp;Humidity;BMP_temperature;BMP_pressure;BME280_temperature;BME280_humidity;BME280_pressure;Samples;Min_cycle;Max_cycle;Signal;HPM_P1;HPM_P2
2022/02/17 00:00:43;;;;;;;138.37;54.23;;;;;;;0.95;100.00;99288.72;1734815;82;21518;-70
2022/02/17 00:03:11;;;;;;;144.13;53.50;;;;;;;0.99;100.00;99273.55;1734632;82;21081;-70
2022/02/17 00:05:38;;;;;;;144.97;52.17;;;;;;;0.97;100.00;99264.94;1734953;82;21094;-71
2022/02/17 00:08:08;;;;;;;154.05;55.52;;;;;;;0.98;100.00;99260.60;1734629;82;21577;-71
2022/02/17 00:10:38;;;;;;;149.12;54.73;;;;;;;0.98;100.00;99257.56;1734501;82;21065;-70
2022/02/17 00:13:06;;;;;;;135.78;52.75;;;;;;;0.96;100.00;99245.50;1734335;82;21062;-71
2022/02/17 00:15:33;;;;;;;138.03;51.37;;;;;;;0.99;100.00;99247.63;1734233;82;21541;-71
2022/02/17 00:18:11;;;;;;;144.07;55.92;;;;;;;0.98;100.00;99236.82;1733916;82;21139;-73
2022/02/17 00:20:38;;;;;;;140.82;51.08;;;;;;;0.99;100.00;99236.38;1734265;82;21589;-70
2022/02/17 00:23:05;;;;;;;155.63;58.45;;;;;;;1.00;100.00;99242.84;1733889;82;21605;-71
2022/02/17 00:25:31;;;;;;;139.00;52.90;;;;;;;1.01;100.00;99248.89;1734374;82;21007;-71
2022/02/17 00:27:59;;;;;;;140.12;53.30;;;;;;;1.03;100.00;99244.54;1734509;82;21042;-70
2022/02/17 00:30:30;;;;;;;159.10;59.60;;;;;;;1.02;100.00;99233.32;1734476;82;22198;-70
2022/02/17 00:32:56;;;;;;;144.22;56.02;;;;;;;1.03;100.00;99225.95;1734102;82;21751;-71
2022/02/17 00:35:23;;;;;;;160.70;60.35;;;;;;;1.05;100.00;99222.90;1734165;82;21070;-71
2022/02/17 00:37:50;;;;;;;170.77;60.10;;;;;;;1.04;100.00;99213.42;1733805;82;21046;-70
2022/02/17 00:40:17;;;;;;;154.40;57.48;;;;;;;1.05;100.00;99208.64;1734411;82;21041;-71
2022/02/17 00:42:45;;;;;;;156.07;56.83;;;;;;;1.04;100.00;99217.31;1734360;82;21116;-71
2022/02/17 00:45:14;;;;;;;155.70;58.02;;;;;;;1.02;100.00;99212.58;1734025;82;21094;-71
2022/02/17 00:47:42;;;;;;;161.70;59.75;;;;;;;1.04;100.00;99199.61;1734253;82;21054;-70
2022/02/17 00:50:11;;;;;;;156.05;59.45;;;;;;;1.02;100.00;99189.69;1734688;82;20990;-70
2022/02/17 00:52:40;;;;;;;141.65;49.85;;;;;;;1.00;100.00;99182.37;1734848;82;21602;-69
2022/02/17 00:55:08;;;;;;;139.32;49.25;;;;;;;0.96;100.00;99180.23;1734574;82;22297;-72
2022/02/17 00:57:35;;;;;;;160.18;57.17;;;;;;;0.94;100.00;99172.91;1734304;81;21014;-71
2022/02/17 01:00:05;;;;;;;153.45;59.83;;;;;;;0.92;100.00;99168.22;1734354;82;21035;-70
2022/02/17 01:02:37;;;;;;;165.85;58.68;;;;;;;0.90;100.00;99169.97;1699375;84;21053;-69
2022/02/17 01:05:08;;;;;;;;;;;;;;;0.87;100.00;99162.66;1697382;84;21100;-70
2022/02/17 01:07:34;;;;;;;147.22;54.40;;;;;;;0.79;100.00;99157.59;1694464;84;21180;-71
2022/02/17 01:10:02;;;;;;;156.00;57.58;;;;;;;0.76;100.00;99158.91;1694714;84;21057;-69
2022/02/17 01:12:29;;;;;;;124.65;47.80;;;;;;;0.71;100.00;99146.45;1666468;84;20959;-70
2022/02/17 01:19:19;;;;;;;176.35;53.08;;;;;;;0.67;100.00;99137.88;1691532;79;21572;-68
2022/02/17 01:22:06;;;;;;;158.70;55.30;;;;;;;0.62;100.00;99133.16;1699166;84;21079;-69
2022/02/17 01:24:34;;;;;;;172.57;56.10;;;;;;;0.58;100.00;99128.48;1716902;83;21028;-68
2022/02/17 01:27:53;;;;;;;163.15;57.05;;;;;;;0.59;100.00;99115.92;1716893;83;21043;-68
2022/02/17 01:30:20;;;;;;;163.05;56.50;;;;;;;0.59;100.00;99113.78;1716924;83;21551;-69
2022/02/17 01:32:53;;;;;;;133.95;50.28;;;;;;;0.61;100.00;99107.70;1716835;83;21059;-68
2022/02/17 01:35:19;;;;;;;159.70;59.35;;;;;;;0.63;100.00;99105.09;1716949;83;21166;-69
2022/02/17 01:38:00;;;;;;;138.05;52.38;;;;;;;0.66;100.00;99102.90;1712448;81;21063;-68
2022/02/17 01:40:27;;;;;;;154.93;57.73;;;;;;;0.68;100.00;99091.63;1717337;83;21482;-68
2022/02/17 01:42:54;;;;;;;174.05;60.35;;;;;;;0.71;100.00;99084.25;1716649;83;21110;-68
2022/02/17 01:45:22;;;;;;;127.70;44.25;;;;;;;0.73;100.00;99078.61;1716929;83;21744;-70
2022/02/17 01:47:48;;;;;;;157.40;57.38;;;;;;;0.75;100.00;99066.49;1716822;83;21506;-67
2022/02/17 01:50:18;;;;;;;152.80;52.03;;;;;;;0.77;100.00;99063.00;1717125;83;21015;-68
2022/02/17 01:52:45;;;;;;;166.28;56.85;;;;;;;0.79;100.00;99059.10;1716606;83;21658;-68
2022/02/17 01:55:11;;;;;;;186.40;64.42;;;;;;;0.80;100.00;99062.94;1688262;85;21003;-69
2022/02/17 01:57:39;;;;;;;174.55;62.33;;;;;;;0.83;100.00;99049.11;1687869;85;21058;-69
2022/02/17 02:00:08;;;;;;;174.63;62.50;;;;;;;0.85;100.00;99058.98;1695650;83;21498;-69
2022/02/17 02:02:46;;;;;;;179.23;64.17;;;;;;;0.87;100.00;99040.83;1687848;85;21666;-68
2022/02/17 02:05:14;;;;;;;169.80;63.55;;;;;;;0.87;100.00;99036.50;1687840;83;21041;-68
2022/02/17 02:07:43;;;;;;;146.82;53.42;;;;;;;0.91;100.00;99017.43;1687994;85;21675;-68
2022/02/17 02:10:12;;;;;;;180.72;61.58;;;;;;;0.92;100.00;99016.56;1687256;84;21006;-68
2022/02/17 02:12:39;;;;;;;179.97;65.40;;;;;;;0.94;100.00;99013.93;1687832;85;21964;-68
2022/02/17 02:15:08;;;;;;;167.00;62.83;;;;;;;0.96;100.00;99011.72;1686907;84;21042;-68
2022/02/17 02:17:38;;;;;;;150.78;54.90;;;;;;;1.00;100.00;99007.36;1687891;83;21562;-69
2022/02/17 02:20:06;;;;;;;168.02;64.92;;;;;;;1.02;100.00;98994.78;1670169;84;21074;-68
2022/02/17 02:22:34;;;;;;;163.15;61.00;;;;;;;1.02;100.00;98985.70;1687998;85;21230;-69
2022/02/17 02:25:47;;;;;;;170.53;64.05;;;;;;;1.04;100.00;98980.06;1688103;85;21966;-68
2022/02/17 02:28:24;;;;;;;174.00;64.22;;;;;;;1.08;100.00;98981.30;1687759;85;21069;-67
2022/02/17 02:35:09;;;;;;;186.43;65.87;;;;;;;1.13;100.00;98971.70;1710592;83;21019;-68
2022/02/17 02:37:36;;;;;;;157.50;57.10;;;;;;;1.14;100.00;98970.38;1716848;83;21119;-67
2022/02/17 02:40:03;;;;;;;172.87;64.30;;;;;;;1.16;100.00;98963.88;1716691;83;21519;-69
2022/02/17 02:42:31;;;;;;;181.80;65.10;;;;;;;1.19;100.00;98949.55;1716260;83;21290;-68
2022/02/17 02:44:58;;;;;;;157.72;63.02;;;;;;;1.19;100.00;98949.55;1716792;83;21647;-67
2022/02/17 02:47:25;;;;;;;162.40;59.65;;;;;;;1.22;100.00;98955.97;1717005;83;21527;-69
2022/02/17 02:49:51;;;;;;;149.57;59.40;;;;;;;1.24;100.00;98953.80;1716909;83;21515;-68
2022/02/17 02:52:18;;;;;;;170.38;64.60;;;;;;;1.26;100.00;98943.37;1717052;83;21069;-68
2022/02/17 02:54:46;;;;;;;163.12;61.48;;;;;;;1.29;100.00;98936.85;1716894;83;21277;-68
2022/02/17 02:57:12;;;;;;;153.45;61.88;;;;;;;1.33;100.00;98933.29;1716913;83;21617;-68
2022/02/17 02:59:41;;;;;;;153.68;52.80;;;;;;;1.37;100.00;98926.32;1717001;83;21065;-68
2022/02/17 03:02:09;;;;;;;149.65;58.65;;;;;;;1.38;100.00;98918.52;1716971;83;21108;-68
2022/02/17 03:04:37;;;;;;;159.57;61.60;;;;;;;1.43;100.00;98912.80;1716641;82;21789;-69
2022/02/17 03:07:10;;;;;;;155.37;61.95;;;;;;;1.45;100.00;98912.32;1715984;83;21081;-69
2022/02/17 03:09:39;;;;;;;162.12;63.48;;;;;;;1.48;100.00;98896.29;1716949;83;21077;-68
2022/02/17 03:12:06;;;;;;;131.78;51.60;;;;;;;1.51;100.00;98894.92;1716554;83;21049;-68
2022/02/17 03:14:33;;;;;;;152.53;62.85;;;;;;;1.55;100.00;98880.55;1716752;83;21026;-69
2022/02/17 03:17:00;;;;;;;147.98;60.35;;;;;;;1.55;100.00;98880.55;1716670;83;21186;-68
2022/02/17 03:19:26;;;;;;;150.25;62.93;;;;;;;1.60;100.00;98880.46;1716303;82;21103;-69
2022/02/17 03:21:53;;;;;;;148.35;59.95;;;;;;;1.62;100.00;98877.39;1710817;83;21031;-69
2022/02/17 03:24:20;;;;;;;134.93;55.73;;;;;;;1.66;100.00;98869.96;1708425;84;21148;-69
2022/02/17 03:26:47;;;;;;;141.10;58.23;;;;;;;1.76;100.00;98878.40;1708396;84;21053;-68
2022/02/17 03:29:14;;;;;;;129.63;50.67;;;;;;;1.76;100.00;98878.40;1708421;84;22077;-68
2022/02/17 03:31:42;;;;;;;123.10;55.52;;;;;;;1.79;100.00;98872.68;1708018;84;21559;-68
2022/02/17 03:34:10;;;;;;;116.25;45.00;;;;;;;1.83;100.00;98869.14;1708175;84;21034;-68
2022/02/17 03:36:37;;;;;;;122.58;51.50;;;;;;;1.88;100.00;98882.87;1708630;84;21585;-68
2022/02/17 03:39:04;;;;;;;134.05;56.18;;;;;;;1.95;100.00;98871.06;1683939;84;21053;-68
2022/02/17 03:41:36;;;;;;;131.78;56.77;;;;;;;1.97;100.00;98858.90;1697358;84;22052;-68
2022/02/17 03:44:06;;;;;;;125.95;53.10;;;;;;;2.01;100.00;98857.50;1707156;84;22248;-68
2022/02/17 03:46:34;;;;;;;127.10;53.98;;;;;;;2.08;100.00;98859.52;1684407;84;20987;-68
2022/02/17 03:49:01;;;;;;;116.25;49.25;;;;;;;2.08;100.00;98859.52;1708442;84;21074;-68
2022/02/17 03:51:28;;;;;;;126.55;49.80;;;;;;;2.10;100.00;98853.84;1708627;84;21061;-68
2022/02/17 03:53:56;;;;;;;138.43;57.58;;;;;;;2.12;100.00;98835.61;1708959;84;22118;-68
2022/02/17 03:56:22;;;;;;;119.70;52.83;;;;;;;2.13;100.00;98839.48;1708510;84;21036;-68
2022/02/17 03:59:04;;;;;;;123.15;49.48;;;;;;;2.17;100.00;98842.42;1701455;84;21012;-68
2022/02/17 04:01:38;;;;;;;120.90;49.80;;;;;;;2.16;100.00;98834.20;1708723;84;21032;-69
2022/02/17 04:04:09;;;;;;;120.70;53.35;;;;;;;2.24;100.00;98828.84;1708476;84;21031;-68
2022/02/17 04:06:39;;;;;;;127.25;48.50;;;;;;;2.21;100.00;98822.41;1708772;84;21136;-69
2022/02/17 04:09:06;;;;;;;120.08;52.27;;;;;;;2.27;100.00;98823.11;1708703;84;21594;-68
2022/02/17 04:11:34;;;;;;;125.72;50.98;;;;;;;2.27;100.00;98824.86;1708753;84;21091;-68
2022/02/17 04:14:02;;;;;;;120.50;51.20;;;;;;;2.26;100.00;98829.21;1708593;84;21568;-68
2022/02/17 04:16:39;;;;;;;120.08;52.60;;;;;;;2.29;100.00;98821.33;1708439;84;21117;-68
2022/02/17 04:19:22;;;;;;;122.92;56.00;;;;;;;2.31;100.00;98818.25;1706856;84;21122;-68
2022/02/17 04:22:07;;;;;;;129.65;52.85;;;;;;;2.33;100.00;98810.89;1715289;83;21642;-68
2022/02/17 04:24:44;;;;;;;128.78;55.03;;;;;;;2.30;100.00;98811.37;1718021;83;21059;-69
2022/02/17 04:27:13;;;;;;;129.10;55.63;;;;;;;2.29;100.00;98804.45;1719401;83;21551;-67
2022/02/17 04:29:40;;;;;;;118.70;46.05;;;;;;;2.29;100.00;98804.45;1719535;83;21019;-68
2022/02/17 04:32:08;;;;;;;125.53;50.60;;;;;;;2.31;100.00;98803.97;1719776;83;21612;-68
2022/02/17 04:34:36;;;;;;;123.67;51.18;;;;;;;2.31;100.00;98780.59;1719360;83;21027;-68
2022/02/17 04:37:07;;;;;;;118.50;46.92;;;;;;;2.31;100.00;98768.89;1718795;83;21043;-67
2022/02/17 04:39:34;;;;;;;130.35;55.98;;;;;;;2.31;100.00;98768.89;1719543;83;21587;-67
2022/02/17 04:42:19;;;;;;;98.37;41.30;;;;;;;2.33;100.00;98765.42;1719942;83;21612;-68
2022/02/17 04:44:49;;;;;;;123.07;48.40;;;;;;;2.35;100.00;98762.31;1719097;83;21119;-68
2022/02/17 04:47:17;;;;;;;120.40;53.20;;;;;;;2.35;100.00;98766.20;1719615;83;21067;-68
2022/02/17 04:49:43;;;;;;;118.62;46.60;;;;;;;2.35;100.00;98761.02;1719645;83;20989;-68
2022/02/17 04:52:10;;;;;;;106.90;43.87;;;;;;;2.35;100.00;98753.22;1720017;83;21382;-67
2022/02/17 04:54:38;;;;;;;134.82;55.88;;;;;;;2.37;100.00;98746.24;1689669;83;21098;-68
2022/02/17 04:57:05;;;;;;;132.05;55.17;;;;;;;2.38;100.00;98744.91;1680608;85;21059;-68
2022/02/17 04:59:35;;;;;;;124.62;52.70;;;;;;;2.36;100.00;98741.50;1680025;85;21051;-68
2022/02/17 05:02:01;;;;;;;133.87;55.95;;;;;;;2.38;100.00;98733.22;1680749;85;21052;-68
2022/02/17 05:04:42;;;;;;;119.20;51.45;;;;;;;2.39;100.00;98732.77;1635717;85;21024;-68
2022/02/17 05:07:10;;;;;;;118.33;49.67;;;;;;;2.41;100.00;98734.88;1680687;85;21075;-68
2022/02/17 05:09:37;;;;;;;124.97;50.23;;;;;;;2.40;100.00;98735.79;1655194;85;21173;-68
2022/02/17 05:12:04;;;;;;;121.17;51.90;;;;;;;2.40;100.00;98731.89;1680838;85;21082;-68
2022/02/17 05:14:32;;;;;;;127.30;52.05;;;;;;;2.43;100.00;98721.41;1680665;85;21556;-68
2022/02/17 05:16:59;;;;;;;132.47;55.43;;;;;;;2.44;100.00;98719.20;1680767;85;21040;-68
2022/02/17 05:19:27;;;;;;;126.85;53.10;;;;;;;2.42;100.00;98704.13;1680203;85;21039;-68
2022/02/17 05:21:56;;;;;;;134.67;57.00;;;;;;;2.42;100.00;98704.13;1638502;85;21150;-68
2022/02/17 05:24:42;;;;;;;133.20;53.00;;;;;;;2.43;100.00;98697.56;1680640;85;21071;-68
2022/02/17 05:27:13;;;;;;;135.50;57.35;;;;;;;2.46;100.00;98706.60;1677959;85;21551;-68
2022/02/17 05:29:56;;;;;;;127.20;52.65;;;;;;;2.42;100.00;98698.93;1677403;85;21052;-68
2022/02/17 05:32:22;;;;;;;132.67;53.70;;;;;;;2.44;100.00;98699.71;1680684;85;21055;-68
2022/02/17 05:34:57;;;;;;;134.72;57.70;;;;;;;2.41;100.00;98688.11;1679894;85;21146;-68
2022/02/17 05:37:36;;;;;;;106.50;46.35;;;;;;;2.41;100.00;98688.11;1679522;85;21051;-67
2022/02/17 05:40:06;;;;;;;113.52;46.88;;;;;;;2.38;100.00;98671.31;1678062;85;21058;-67
2022/02/17 05:42:34;;;;;;;146.25;58.42;;;;;;;2.41;100.00;98671.22;1680712;85;21050;-68
2022/02/17 05:45:01;;;;;;;137.45;56.65;;;;;;;2.41;100.00;98669.92;1680781;85;21618;-68
2022/02/17 05:47:27;;;;;;;124.00;52.90;;;;;;;2.42;100.00;98659.50;1680775;85;21525;-68
2022/02/17 05:49:54;;;;;;;113.70;45.70;;;;;;;2.41;100.00;98654.34;1680656;85;21254;-70
2022/02/17 05:52:20;;;;;;;108.00;43.75;;;;;;;2.40;100.00;98655.24;1680860;84;21067;-68
2022/02/17 05:54:47;;;;;;;139.15;57.13;;;;;;;2.43;100.00;98640.86;1713202;83;21511;-68
2022/02/17 05:57:14;;;;;;;132.52;59.30;;;;;;;2.43;100.00;98640.86;1719706;83;21051;-68
2022/02/17 05:59:43;;;;;;;149.47;61.20;;;;;;;2.45;100.00;98646.87;1719789;83;21526;-69
2022/02/17 06:02:09;;;;;;;128.50;54.65;;;;;;;2.45;100.00;98629.98;1719544;83;21059;-68
2022/02/17 06:04:35;;;;;;;131.52;54.20;;;;;;;2.48;100.00;98628.58;1719476;83;21000;-68
2022/02/17 06:07:02;;;;;;;128.62;54.42;;;;;;;2.47;100.00;98634.69;1719808;83;22070;-67
2022/02/17 06:09:30;;;;;;;118.53;47.78;;;;;;;2.49;100.00;98626.41;1719444;83;21031;-68
2022/02/17 06:11:58;;;;;;;135.90;55.25;;;;;;;2.48;100.00;98623.39;1719746;83;21941;-68
2022/02/17 06:14:24;;;;;;;134.40;56.53;;;;;;;2.52;100.00;98629.75;1719936;83;21583;-68
2022/02/17 06:16:52;;;;;;;137.88;59.45;;;;;;;2.55;100.00;98634.00;1719771;83;21020;-69
2022/02/17 06:19:18;;;;;;;134.20;56.92;;;;;;;2.54;100.00;98629.72;1719566;83;21164;-68
2022/02/17 06:21:46;;;;;;;128.95;52.48;;;;;;;2.57;100.00;98634.81;1719151;83;21079;-68
2022/02/17 06:24:13;;;;;;;140.00;56.77;;;;;;;2.58;100.00;98640.44;1716740;83;21144;-68
2022/02/17 06:26:40;;;;;;;102.58;41.88;;;;;;;2.60;100.00;98637.35;1717065;83;22052;-69
2022/02/17 06:29:07;;;;;;;126.47;56.33;;;;;;;2.60;100.00;98625.66;1716804;83;21039;-67
2022/02/17 06:31:35;;;;;;;125.55;51.30;;;;;;;2.66;100.00;98621.55;1716920;83;21015;-68
2022/02/17 06:34:01;;;;;;;130.15;54.27;;;;;;;2.68;100.00;98619.77;1716981;83;20996;-68
2022/02/17 06:36:28;;;;;;;131.32;51.42;;;;;;;2.69;100.00;98604.59;1717155;83;21538;-68
2022/02/17 06:38:55;;;;;;;124.80;52.83;;;;;;;2.73;100.00;98608.78;1716748;83;21007;-68
2022/02/17 06:41:22;;;;;;;137.57;54.83;;;;;;;2.75;100.00;98596.20;1717267;83;21064;-67
2022/02/17 06:43:48;;;;;;;129.32;56.40;;;;;;;2.78;100.00;98585.70;1716625;83;21051;-68
2022/02/17 06:46:15;;;;;;;113.37;44.38;;;;;;;2.79;100.00;98584.37;1716892;83;21103;-69
2022/02/17 06:48:43;;;;;;;131.05;54.33;;;;;;;2.77;100.00;98590.52;1716946;83;21091;-68
2022/02/17 06:51:11;;;;;;;134.30;51.50;;;;;;;2.79;100.00;98577.87;1717079;83;21004;-68
2022/02/17 06:53:39;;;;;;;140.92;61.02;;;;;;;2.78;100.00;98576.15;1702884;83;21661;-68
2022/02/17 06:56:06;;;;;;;132.47;55.40;;;;;;;2.83;100.00;98572.11;1678067;85;21110;-68
2022/02/17 06:58:33;;;;;;;125.07;52.73;;;;;;;2.85;100.00;98582.89;1677910;85;21579;-68
2022/02/17 07:00:59;;;;;;;121.40;54.73;;;;;;;2.90;100.00;98559.34;1678109;85;21127;-68
2022/02/17 07:03:27;;;;;;;130.47;56.65;;;;;;;2.97;100.00;98555.66;1677776;85;21560;-68
2022/02/17 07:05:55;;;;;;;126.90;55.78;;;;;;;3.03;100.00;98555.44;1677977;84;21114;-68
2022/02/17 07:08:21;;;;;;;127.00;52.98;;;;;;;3.05;100.00;98556.25;1677839;84;21083;-68
2022/02/17 07:10:58;;;;;;;128.70;55.15;;;;;;;3.04;100.00;98561.52;1678189;84;21031;-68
2022/02/17 07:13:27;;;;;;;118.57;50.55;;;;;;;3.01;100.00;98557.23;1678123;85;21138;-68
2022/02/17 07:15:55;;;;;;;135.93;56.30;;;;;;;3.01;100.00;98546.83;1678100;84;21328;-68
2022/02/17 07:18:23;;;;;;;109.35;42.50;;;;;;;3.02;100.00;98540.75;1677912;84;21517;-68
2022/02/17 07:20:53;;;;;;;120.10;52.33;;;;;;;3.01;100.00;98536.89;1678282;84;21099;-68
2022/02/17 07:23:20;;;;;;;131.22;53.10;;;;;;;3.04;100.00;98535.05;1686713;83;21638;-69
2022/02/17 07:25:47;;;;;;;128.30;56.42;;;;;;;3.06;100.00;98515.05;1690631;84;21209;-68
2022/02/17 07:28:14;;;;;;;92.10;35.48;;;;;;;3.12;100.00;98520.03;1690327;83;21634;-68
2022/02/17 07:30:44;;;;;;;122.62;51.02;;;;;;;3.14;100.00;98506.53;1713491;83;21040;-69
2022/02/17 07:33:10;;;;;;;108.40;47.83;;;;;;;3.12;100.00;98487.52;1724655;83;21058;-68
2022/02/17 07:35:36;;;;;;;120.75;49.70;;;;;;;3.21;100.00;98480.33;1725149;83;21074;-68
2022/02/17 07:38:03;;;;;;;118.42;53.38;;;;;;;3.27;100.00;98470.56;1724396;83;21515;-68
2022/02/17 07:40:29;;;;;;;115.37;50.92;;;;;;;3.35;100.00;98450.78;1695997;83;21034;-68
2022/02/17 07:42:56;;;;;;;114.77;50.55;;;;;;;3.43;100.00;98461.78;1696004;84;21035;-68
2022/02/17 07:45:22;;;;;;;73.12;28.77;;;;;;;3.46;100.00;98437.40;1695668;84;21147;-71
2022/02/17 07:47:51;;;;;;;87.92;34.50;;;;;;;3.51;100.00;98428.97;1695650;84;20975;-68
2022/02/17 07:50:19;;;;;;;111.88;49.98;;;;;;;3.49;100.00;98426.41;1695740;84;22161;-68
2022/02/17 07:52:46;;;;;;;92.35;33.20;;;;;;;3.64;100.00;98425.49;1695502;84;21009;-68
2022/02/17 07:55:13;;;;;;;86.32;38.90;;;;;;;3.75;100.00;98420.72;1695253;84;21578;-69
2022/02/17 07:57:40;;;;;;;119.60;50.95;;;;;;;3.95;100.00;98429.95;1695430;84;21050;-68
2022/02/17 08:00:11;;;;;;;104.43;48.33;;;;;;;4.20;100.00;98416.00;1695724;84;21029;-69
2022/02/17 08:02:42;;;;;;;93.12;40.90;;;;;;;4.47;100.00;98423.66;1695516;84;20982;-68
2022/02/17 08:05:10;;;;;;;102.55;46.63;;;;;;;4.74;100.00;98412.56;1695302;83;21526;-69
2022/02/17 08:07:38;;;;;;;101.97;48.55;;;;;;;4.93;100.00;98408.77;1695321;84;21597;-69
2022/02/17 08:10:06;;;;;;;116.10;49.40;;;;;;;5.19;100.00;98405.89;1695509;84;21099;-68
2022/02/17 08:12:41;;;;;;;95.47;44.38;;;;;;;5.47;100.00;98395.55;1695538;84;22075;-68
2022/02/17 08:15:09;;;;;;;103.67;44.38;;;;;;;5.67;100.00;98388.16;1695540;84;21121;-68
2022/02/17 08:17:38;;;;;;;100.22;46.00;;;;;;;6.06;100.00;98380.29;1695734;84;21051;-68
2022/02/17 08:20:06;;;;;;;83.10;38.28;;;;;;;6.59;100.00;98381.73;1695652;83;21059;-69
2022/02/17 08:22:34;;;;;;;84.70;38.65;;;;;;;7.06;100.00;98377.20;1691960;84;21030;-69
2022/02/17 08:25:01;;;;;;;77.00;38.13;;;;;;;7.16;99.63;98382.38;1680159;85;21132;-69
2022/02/17 08:27:31;;;;;;;78.67;37.58;;;;;;;7.35;98.81;98379.19;1680108;85;21039;-69
2022/02/17 08:29:57;;;;;;;72.50;36.35;;;;;;;7.46;97.17;98377.80;1679961;85;20999;-69
2022/02/17 08:32:25;;;;;;;82.95;41.65;;;;;;;7.62;96.52;98382.61;1656649;85;21155;-69
2022/02/17 08:34:53;;;;;;;76.92;41.00;;;;;;;8.09;94.19;98366.08;1680547;85;21030;-69
2022/02/17 08:37:20;;;;;;;75.25;37.00;;;;;;;8.30;92.45;98351.41;1680079;85;21114;-69
2022/02/17 08:39:47;;;;;;;64.85;32.20;;;;;;;8.83;89.44;98351.45;1680203;85;21750;-69
2022/02/17 08:42:14;;;;;;;72.03;31.10;;;;;;;8.77;87.57;98338.70;1680318;85;21031;-69
2022/02/17 08:44:41;;;;;;;76.95;38.85;;;;;;;8.90;86.12;98331.78;1680178;85;21019;-69
2022/02/17 08:47:08;;;;;;;87.53;42.58;;;;;;;8.87;86.90;98313.59;1680447;85;21075;-69
2022/02/17 08:49:35;;;;;;;73.33;40.20;;;;;;;8.84;87.34;98306.39;1680531;85;21015;-69
2022/02/17 08:52:01;;;;;;;71.77;38.08;;;;;;;8.61;87.21;98305.47;1680223;85;21125;-69
2022/02/17 08:54:27;;;;;;;94.25;44.27;;;;;;;8.26;88.66;98292.18;1700336;84;21110;-69
2022/02/17 08:56:54;;;;;;;74.32;36.10;;;;;;;8.22;89.46;98295.94;1708629;84;21078;-68
2022/02/17 08:59:20;;;;;;;80.95;35.52;;;;;;;8.04;90.30;98292.09;1708766;84;21073;-69
2022/02/17 09:01:46;;;;;;;83.85;42.08;;;;;;;7.68;91.78;98297.58;1707607;84;21068;-70
2022/02/17 09:04:13;;;;;;;82.97;39.90;;;;;;;7.26;94.57;98295.88;1707223;82;21104;-69
2022/02/17 09:06:40;;;;;;;87.08;43.23;;;;;;;7.08;96.05;98294.22;1707309;84;21088;-68
2022/02/17 09:09:06;;;;;;;83.95;39.80;;;;;;;6.90;97.79;98299.50;1707244;83;21572;-68
2022/02/17 09:11:32;;;;;;;83.20;41.02;;;;;;;6.88;98.20;98306.58;1707295;84;21024;-69
2022/02/17 09:14:00;;;;;;;73.83;33.83;;;;;;;6.80;99.04;98294.80;1707030;84;21076;-69
2022/02/17 09:16:26;;;;;;;102.90;48.52;;;;;;;6.56;99.22;98289.05;1707350;84;21087;-68
2022/02/17 09:18:53;;;;;;;76.05;34.33;;;;;;;6.31;100.00;98279.80;1707070;82;20993;-68
2022/02/17 09:21:21;;;;;;;78.22;34.85;;;;;;;6.08;100.00;98271.77;1707033;84;21533;-68
2022/02/17 09:23:49;;;;;;;98.22;46.68;;;;;;;5.93;100.00;98262.02;1706872;83;21006;-69
2022/02/17 09:26:15;;;;;;;86.00;39.08;;;;;;;5.87;100.00;98252.72;1707036;84;21043;-69
2022/02/17 09:28:46;;;;;;;88.55;42.33;;;;;;;5.79;100.00;98256.14;1706922;84;21134;-69
2022/02/17 09:31:13;;;;;;;70.23;31.87;;;;;;;5.76;100.00;98266.75;1707708;84;21051;-68
2022/02/17 09:33:40;;;;;;;71.60;31.85;;;;;;;5.72;100.00;98242.98;1708353;84;21051;-69
2022/02/17 09:36:08;;;;;;;86.53;38.42;;;;;;;5.71;100.00;98233.01;1708735;84;21067;-69
2022/02/17 09:38:34;;;;;;;93.80;43.45;;;;;;;5.68;100.00;98211.81;1708369;84;21078;-68
2022/02/17 09:41:07;;;;;;;82.85;40.48;;;;;;;5.80;100.00;98205.61;1708512;83;21591;-69
2022/02/17 09:43:35;;;;;;;93.35;41.80;;;;;;;5.83;100.00;98187.17;1685395;84;21024;-69
2022/02/17 09:46:02;;;;;;;75.95;36.68;;;;;;;5.92;100.00;98181.48;1708764;84;20981;-68
2022/02/17 09:48:28;;;;;;;73.97;35.58;;;;;;;6.02;100.00;98180.13;1708597;84;21059;-69
2022/02/17 09:50:55;;;;;;;75.17;35.43;;;;;;;6.04;100.00;98172.23;1708920;83;21099;-68
2022/02/17 09:53:24;;;;;;;76.35;35.65;;;;;;;6.05;100.00;98166.94;1708358;83;21869;-68
2022/02/17 09:55:50;;;;;;;84.92;39.13;;;;;;;6.01;100.00;98161.47;1708644;84;21030;-68
2022/02/17 09:58:17;;;;;;;61.10;28.75;;;;;;;6.02;100.00;98152.70;1708252;84;21077;-69
2022/02/17 10:00:45;;;;;;;77.85;39.08;;;;;;;6.05;100.00;98160.41;1708328;84;21559;-68
2022/02/17 10:03:28;;;;;;;68.35;29.37;;;;;;;6.08;100.00;98143.25;1708519;82;21081;-69
2022/02/17 10:06:13;;;;;;;81.95;38.75;;;;;;;6.13;100.00;98143.48;1708584;82;21102;-69
2022/02/17 10:08:39;;;;;;;78.10;33.00;;;;;;;6.22;100.00;98131.26;1692456;84;20992;-69
2022/02/17 10:11:10;;;;;;;73.22;32.23;;;;;;;6.29;100.00;98105.19;1680254;85;21002;-68
2022/02/17 10:13:36;;;;;;;80.35;36.17;;;;;;;6.34;100.00;98103.64;1656668;85;21094;-69
2022/02/17 10:16:04;;;;;;;72.20;34.75;;;;;;;6.40;100.00;98097.63;1680237;85;21325;-69
2022/02/17 10:18:31;;;;;;;68.85;32.15;;;;;;;6.44;100.00;98088.70;1680212;84;21158;-68
2022/02/17 10:21:07;;;;;;;86.53;38.58;;;;;;;6.49;99.84;98077.53;1613769;85;21090;-68
2022/02/17 10:23:40;;;;;;;73.78;36.95;;;;;;;6.56;99.50;98061.52;1682962;85;21035;-68
2022/02/17 10:26:13;;;;;;;70.75;35.33;;;;;;;6.63;99.66;98065.50;1687913;85;22122;-68
2022/02/17 10:28:45;;;;;;;69.82;34.80;;;;;;;6.65;99.50;98070.19;1688293;85;21284;-69
2022/02/17 10:31:28;;;;;;;65.22;31.42;;;;;;;6.65;99.62;98076.72;1686553;84;22235;-69
2022/02/17 10:33:56;;;;;;;71.95;36.48;;;;;;;6.65;99.51;98068.88;1669921;84;21090;-68
2022/02/17 10:36:42;;;;;;;71.22;32.98;;;;;;;6.70;99.79;98050.69;1688117;85;21966;-69
2022/02/17 10:39:22;;;;;;;67.72;32.10;;;;;;;6.76;99.57;98055.19;1687761;85;21090;-69
2022/02/17 10:41:53;;;;;;;71.10;32.45;;;;;;;6.79;99.31;98034.95;1688059;85;21129;-69
2022/02/17 10:44:25;;;;;;;62.43;28.17;;;;;;;6.90;99.06;98045.67;1688094;85;21129;-70
2022/02/17 10:46:51;;;;;;;55.20;25.62;;;;;;;6.96;98.40;98022.70;1670355;84;21018;-69
2022/02/17 10:49:21;;;;;;;71.95;31.20;;;;;;;7.02;98.09;98022.38;1687970;85;21022;-69
2022/02/17 10:51:49;;;;;;;57.08;29.20;;;;;;;7.07;97.96;98025.56;1688174;85;20995;-69
2022/02/17 10:54:22;;;;;;;72.35;31.30;;;;;;;7.18;97.35;98010.10;1705546;83;21053;-69
2022/02/17 10:56:51;;;;;;;62.00;31.50;;;;;;;7.36;96.09;98016.03;1716693;83;21164;-69
2022/02/17 11:02:05;;;;;;;49.50;23.90;;;;;;;7.73;94.19;98000.34;1716918;83;21081;-70
2022/02/17 11:04:32;;;;;;;62.10;30.48;;;;;;;7.67;92.33;97981.05;1716534;82;21054;-69
2022/02/17 11:06:59;;;;;;;57.65;28.60;;;;;;;7.59;93.65;97980.64;1716932;83;21109;-69
2022/02/17 11:09:25;;;;;;;55.30;27.07;;;;;;;7.59;93.89;97980.64;1716562;83;21143;-69
2022/02/17 11:11:53;;;;;;;52.30;26.50;;;;;;;7.58;93.96;97978.97;1717104;83;21073;-69
2022/02/17 11:15:23;;;;;;;47.15;22.75;;;;;;;7.62;94.50;97968.69;1796531;79;28070;-69
2022/02/17 11:17:50;;;;;;;56.18;28.73;;;;;;;7.52;94.16;97963.61;1756350;81;21020;-69
2022/02/17 11:20:18;;;;;;;52.85;25.43;;;;;;;7.49;95.10;97959.88;1749242;81;21116;-69
2022/02/17 11:22:49;;;;;;;60.75;28.15;;;;;;;7.37;95.62;97961.44;1748038;81;21061;-68
2022/02/17 11:25:17;;;;;;;48.52;24.02;;;;;;;7.29;98.16;97951.42;1747894;82;21594;-69
2022/02/17 11:28:03;;;;;;;56.90;27.45;;;;;;;7.24;98.67;97941.66;1748064;81;21077;-69
2022/02/17 11:30:33;;;;;;;59.95;30.52;;;;;;;7.15;99.87;97942.20;1748151;81;21041;-68
2022/02/17 11:33:28;;;;;;;54.35;28.27;;;;;;;7.10;100.00;97944.25;1748113;82;21168;-69
2022/02/17 11:36:24;;;;;;;60.25;28.05;;;;;;;7.02;100.00;97943.86;1747974;82;21213;-69